createdAt,value
2018-11-27T00:00:30.852Z,93645.75
2018-11-27T00:03:02.362Z,93659.40
2018-11-27T00:05:31.941Z,93656.69
2018-11-27T00:08:00.675Z,93664.81
2018-11-27T00:10:31.232Z,93657.30
2018-11-27T00:12:59.857Z,93662.22
2018-11-27T00:15:28.587Z,93665.79
2018-11-27T00:17:57.278Z,93668.19
2018-11-27T00:20:25.965Z,93664.50
2018-11-27T00:22:54.648Z,93665.91
2018-11-27T00:25:23.280Z,93665.38
2018-11-27T00:27:51.950Z,93670.68
2018-11-27T00:30:21.637Z,93665.69
2018-11-27T00:32:50.340Z,93665.69
2018-11-27T00:35:20.109Z,93673.05
2018-11-27T00:37:48.762Z,93676.55
2018-11-27T00:40:20.207Z,93681.31
2018-11-27T00:42:49.035Z,93678.78
2018-11-27T00:45:18.904Z,93683.03
2018-11-27T00:47:48.650Z,93686.73
2018-11-27T00:50:24.596Z,93685.13
2018-11-27T00:52:53.260Z,93687.22
2018-11-27T00:55:22.270Z,93689.81
2018-11-27T00:57:52.087Z,93693.51
2018-11-27T01:00:21.740Z,93688.04
2018-11-27T01:02:50.428Z,93688.76
2018-11-27T01:05:20.333Z,93695.56
2018-11-27T01:07:49.053Z,93691.13
2018-11-27T01:10:20.867Z,93691.05
2018-11-27T01:12:49.620Z,93696.43
2018-11-27T01:15:18.325Z,93688.58
2018-11-27T01:17:48.251Z,93690.86
2018-11-27T01:20:18.149Z,93692.59
2018-11-27T01:22:46.743Z,93689.02
2018-11-27T01:25:15.383Z,93684.70
2018-11-27T01:27:44.091Z,93678.65
2018-11-27T01:30:16.788Z,93684.31
2018-11-27T01:32:45.533Z,93688.83
2018-11-27T01:35:20.353Z,93685.32
2018-11-27T01:37:50.528Z,93680.14
2018-11-27T01:40:24.104Z,93670.94
2018-11-27T01:42:53.640Z,93678.59
2018-11-27T01:45:22.899Z,93685.12
2018-11-27T01:47:51.754Z,93678.46
2018-11-27T01:50:20.949Z,93681.00
2018-11-27T01:52:49.668Z,93677.11
2018-11-27T01:55:20.266Z,93681.72
2018-11-27T01:57:48.998Z,93682.36
2018-11-27T02:00:26.848Z,93672.41
2018-11-27T02:02:56.155Z,93676.92
2018-11-27T02:05:25.492Z,93673.20
2018-11-27T02:07:54.240Z,93671.68
2018-11-27T02:10:22.959Z,93668.14
2018-11-27T02:12:53.415Z,93666.18
2018-11-27T02:15:23.165Z,93670.05
2018-11-27T02:17:51.810Z,93668.51
2018-11-27T02:20:20.504Z,93663.71
2018-11-27T02:22:49.174Z,93662.96
2018-11-27T02:25:21.744Z,93656.20
2018-11-27T02:27:50.649Z,93650.02
2018-11-27T02:30:20.863Z,93655.42
2018-11-27T02:32:49.559Z,93656.12
2018-11-27T02:35:19.156Z,93657.78
2018-11-27T02:37:48.891Z,93661.00
2018-11-27T02:40:18.343Z,93670.93
2018-11-27T02:42:46.983Z,93675.69
2018-11-27T02:45:18.103Z,93677.41
2018-11-27T02:47:47.541Z,93674.47
2018-11-27T02:50:17.760Z,93672.91
2018-11-27T02:52:46.494Z,93673.20
2018-11-27T02:55:19.261Z,93676.66
2018-11-27T02:57:47.895Z,93672.05
2018-11-27T03:00:21.502Z,93672.65
2018-11-27T03:02:50.216Z,93679.89
2018-11-27T03:05:27.934Z,93683.89
2018-11-27T03:07:56.621Z,93686.06
2018-11-27T03:10:25.312Z,93682.73
2018-11-27T03:12:54.043Z,93679.47
2018-11-27T03:15:22.773Z,93674.37
2018-11-27T03:17:51.450Z,93678.89
2018-11-27T03:20:20.170Z,93680.98
2018-11-27T03:22:48.909Z,93680.94
2018-11-27T03:25:19.635Z,93676.11
2018-11-27T03:27:49.282Z,93675.63
2018-11-27T03:30:18.997Z,93680.31
2018-11-27T03:32:47.792Z,93685.81
2018-11-27T03:35:18.164Z,93676.67
2018-11-27T03:37:47.667Z,93674.64
2018-11-27T03:40:27.180Z,93670.45
2018-11-27T03:42:55.970Z,93651.73
2018-11-27T03:45:25.351Z,93651.90
2018-11-27T03:47:54.052Z,93654.25
2018-11-27T03:50:24.064Z,93660.30
2018-11-27T03:52:52.772Z,93666.23
2018-11-27T03:55:21.466Z,93660.02
2018-11-27T03:57:50.905Z,93660.02
2018-11-27T04:00:20.881Z,93656.72
2018-11-27T04:02:53.708Z,93666.81
2018-11-27T04:05:23.142Z,93666.73
2018-11-27T04:07:51.748Z,93679.39
2018-11-27T04:10:20.600Z,93680.61
2018-11-27T04:12:49.339Z,93690.67
2018-11-27T04:15:17.966Z,93688.88
2018-11-27T04:17:46.527Z,93681.98
2018-11-27T04:20:15.160Z,93688.59
2018-11-27T04:22:44.330Z,93681.72
2018-11-27T04:25:14.920Z,93687.45
2018-11-27T04:27:44.066Z,93682.90
2018-11-27T04:30:17.111Z,93690.30
2018-11-27T04:32:45.917Z,93692.22
2018-11-27T04:35:16.093Z,93695.13
2018-11-27T04:37:44.877Z,93695.98
2018-11-27T04:40:16.638Z,93701.02
2018-11-27T04:42:45.306Z,93704.56
2018-11-27T04:45:17.340Z,93706.91
2018-11-27T04:47:46.103Z,93700.38
2018-11-27T04:50:15.609Z,93710.63
2018-11-27T04:52:44.524Z,93707.05
2018-11-27T04:55:17.345Z,93708.94
2018-11-27T04:57:47.127Z,93715.17
2018-11-27T05:00:18.852Z,93711.25
2018-11-27T05:02:47.612Z,93709.77
2018-11-27T05:05:16.252Z,93708.09
2018-11-27T05:07:44.898Z,93703.77
2018-11-27T05:10:16.910Z,93708.29
2018-11-27T05:12:45.687Z,93708.14
2018-11-27T05:15:16.270Z,93707.48
2018-11-27T05:17:48.031Z,93707.36
2018-11-27T05:20:14.898Z,93707.36
2018-11-27T05:22:43.899Z,93706.16
2018-11-27T05:25:14.503Z,93703.56
2018-11-27T05:27:45.562Z,93692.04
2018-11-27T05:30:16.562Z,93698.77
2018-11-27T05:32:45.249Z,93700.41
2018-11-27T05:35:15.132Z,93708.19
2018-11-27T05:37:44.877Z,93708.81
2018-11-27T05:40:15.025Z,93707.89
2018-11-27T05:42:43.788Z,93705.55
2018-11-27T05:45:14.977Z,93705.23
2018-11-27T05:47:43.657Z,93711.72
2018-11-27T05:50:14.444Z,93705.30
2018-11-27T05:52:43.245Z,93703.16
2018-11-27T05:55:13.095Z,93704.92
2018-11-27T05:57:42.832Z,93699.58
2018-11-27T06:00:16.019Z,93697.84
2018-11-27T06:02:44.769Z,93701.54
2018-11-27T06:05:15.363Z,93698.95
2018-11-27T06:07:44.163Z,93708.34
2018-11-27T06:10:14.122Z,93717.09
2018-11-27T06:12:42.751Z,93722.59
2018-11-27T06:15:16.449Z,93713.75
2018-11-27T06:17:47.066Z,93706.03
2018-11-27T06:20:16.762Z,93707.48
2018-11-27T06:22:45.470Z,93712.34
2018-11-27T06:25:21.834Z,93709.06
2018-11-27T06:27:54.741Z,93708.95
2018-11-27T06:30:25.300Z,93709.99
2018-11-27T06:32:54.024Z,93718.94
2018-11-27T06:35:27.797Z,93717.48
2018-11-27T06:37:56.544Z,93719.52
2018-11-27T06:40:28.330Z,93719.88
2018-11-27T06:42:57.217Z,93721.50
2018-11-27T06:45:25.861Z,93725.38
2018-11-27T06:47:54.522Z,93727.47
2018-11-27T06:50:23.697Z,93727.36
2018-11-27T06:52:52.373Z,93713.22
2018-11-27T06:55:23.144Z,93711.80
2018-11-27T06:57:51.942Z,93712.33
2018-11-27T07:00:23.870Z,93702.03
2018-11-27T07:02:52.602Z,93691.04
2018-11-27T07:05:21.348Z,93682.08
2018-11-27T07:07:50.017Z,93686.72
2018-11-27T07:10:29.488Z,93692.45
2018-11-27T07:13:09.069Z,93692.02
2018-11-27T07:15:37.822Z,93691.85
2018-11-27T07:18:07.820Z,93687.70
2018-11-27T07:20:36.594Z,93686.64
2018-11-27T07:23:05.641Z,93693.67
2018-11-27T07:25:34.338Z,93688.17
2018-11-27T07:28:02.952Z,93683.53
2018-11-27T07:30:31.620Z,93684.56
2018-11-27T07:33:00.269Z,93688.92
2018-11-27T07:35:28.922Z,93691.27
2018-11-27T07:37:57.549Z,93695.21
2018-11-27T07:40:27.677Z,93688.61
2018-11-27T07:43:00.617Z,93696.00
2018-11-27T07:45:29.326Z,93693.41
2018-11-27T07:47:57.961Z,93691.98
2018-11-27T07:50:26.644Z,93703.54
2018-11-27T07:52:55.275Z,93705.23
2018-11-27T07:55:24.433Z,93697.72
2018-11-27T07:57:54.060Z,93708.61
2018-11-27T08:00:24.404Z,93709.31
2018-11-27T08:02:55.059Z,93710.69
2018-11-27T08:05:28.758Z,93705.34
2018-11-27T08:07:57.895Z,93702.40
2018-11-27T08:10:27.808Z,93701.41
2018-11-27T08:12:56.514Z,93687.58
2018-11-27T08:15:29.490Z,93690.61
2018-11-27T08:17:58.187Z,93690.50
2018-11-27T08:20:28.802Z,93690.33
2018-11-27T08:22:57.544Z,93687.86
2018-11-27T08:25:26.182Z,93695.41
2018-11-27T08:28:05.152Z,93693.91
2018-11-27T08:30:33.838Z,93698.00
2018-11-27T08:33:02.505Z,93703.42
2018-11-27T08:35:31.498Z,93703.42
2018-11-27T08:38:01.258Z,93699.17
2018-11-27T08:40:31.432Z,93695.95
2018-11-27T08:43:00.051Z,93693.20
2018-11-27T08:45:28.681Z,93694.78
2018-11-27T08:47:57.427Z,93690.61
2018-11-27T08:50:27.099Z,93692.97
2018-11-27T08:52:59.670Z,93700.32
2018-11-27T08:55:30.816Z,93699.49
2018-11-27T08:58:00.285Z,93710.14
2018-11-27T09:00:28.900Z,93700.95
2018-11-27T09:03:08.229Z,93700.75
2018-11-27T09:05:37.045Z,93688.92
2018-11-27T09:08:06.193Z,93679.78
2018-11-27T09:10:34.949Z,93678.48
2018-11-27T09:13:03.613Z,93675.70
2018-11-27T09:15:32.263Z,93669.46
2018-11-27T09:18:08.328Z,93664.31
2018-11-27T09:20:36.943Z,93660.45
2018-11-27T09:23:06.092Z,93657.66
2018-11-27T09:25:34.909Z,93654.06
2018-11-27T09:28:03.586Z,93652.05
2018-11-27T09:30:32.257Z,93652.77
2018-11-27T09:33:00.990Z,93654.77
2018-11-27T09:35:29.662Z,93654.38
2018-11-27T09:37:58.289Z,93654.29
2018-11-27T09:40:26.931Z,93654.00
2018-11-27T09:42:55.656Z,93657.05
2018-11-27T09:45:25.398Z,93658.09
2018-11-27T09:47:55.862Z,93659.81
2018-11-27T09:50:24.559Z,93650.62
2018-11-27T09:52:53.325Z,93654.00
2018-11-27T09:55:24.370Z,93651.21
2018-11-27T09:57:58.768Z,93658.74
2018-11-27T10:00:24.954Z,93641.53
2018-11-27T10:02:57.443Z,93638.34
2018-11-27T10:05:26.101Z,93648.92
2018-11-27T10:07:54.764Z,93652.53
2018-11-27T10:10:24.356Z,93639.41
2018-11-27T10:12:53.200Z,93642.77
2018-11-27T10:15:23.992Z,93635.91
2018-11-27T10:17:58.811Z,93635.71
2018-11-27T10:20:29.887Z,93632.91
2018-11-27T10:22:58.533Z,93643.16
2018-11-27T10:25:27.267Z,93635.08
2018-11-27T10:27:55.892Z,93645.37
2018-11-27T10:30:26.076Z,93648.59
2018-11-27T10:32:56.923Z,93643.80
2018-11-27T10:35:26.690Z,93640.73
2018-11-27T10:37:55.356Z,93645.37
2018-11-27T10:40:24.033Z,93633.08
2018-11-27T10:42:52.651Z,93631.58
2018-11-27T10:45:22.432Z,93638.41
2018-11-27T10:47:53.048Z,93634.52
2018-11-27T10:50:21.714Z,93639.70
2018-11-27T10:52:52.357Z,93634.28
2018-11-27T10:55:21.625Z,93631.70
2018-11-27T10:57:50.330Z,93630.72
2018-11-27T11:00:26.300Z,93628.02
2018-11-27T11:03:03.622Z,93631.58
2018-11-27T11:05:34.216Z,93633.73
2018-11-27T11:08:02.878Z,93626.66
2018-11-27T11:10:31.487Z,93632.06
2018-11-27T11:13:00.179Z,93629.33
2018-11-27T11:15:28.874Z,93617.83
2018-11-27T11:17:57.516Z,93625.67
2018-11-27T11:20:26.256Z,93612.73
2018-11-27T11:22:54.845Z,93613.02
2018-11-27T11:25:24.604Z,93615.69
2018-11-27T11:27:55.475Z,93622.97
2018-11-27T11:30:24.170Z,93614.92
2018-11-27T11:32:52.861Z,93618.82
2018-11-27T11:35:21.580Z,93621.61
2018-11-27T11:37:50.542Z,93617.88
2018-11-27T11:40:20.192Z,93613.11
2018-11-27T11:42:49.637Z,93612.59
2018-11-27T11:45:18.353Z,93612.52
2018-11-27T11:47:47.204Z,93607.75
2018-11-27T11:50:17.146Z,93622.14
2018-11-27T11:52:49.051Z,93621.83
2018-11-27T11:55:18.473Z,93615.40
2018-11-27T11:57:47.293Z,93610.61
2018-11-27T12:00:20.108Z,93615.40
2018-11-27T12:02:48.740Z,93612.52
2018-11-27T12:05:17.411Z,93607.80
2018-11-27T12:07:46.267Z,93611.78
2018-11-27T12:10:15.874Z,93602.19
2018-11-27T12:12:45.769Z,93599.91
2018-11-27T12:15:17.375Z,93604.80
2018-11-27T12:17:46.742Z,93615.70
2018-11-27T12:20:17.188Z,93613.52
2018-11-27T12:22:49.826Z,93612.20
2018-11-27T12:25:23.977Z,93602.36
2018-11-27T12:27:47.473Z,93607.48
2018-11-27T12:30:20.316Z,93603.34
2018-11-27T12:32:49.000Z,93604.13
2018-11-27T12:35:18.246Z,93600.11
2018-11-27T12:37:46.909Z,93606.50
2018-11-27T12:40:21.396Z,93601.63
2018-11-27T12:42:50.224Z,93601.52
2018-11-27T12:45:25.847Z,93602.70
2018-11-27T12:47:55.133Z,93604.00
2018-11-27T12:50:26.019Z,93585.98
2018-11-27T12:52:54.647Z,93576.42
2018-11-27T12:55:24.182Z,93569.23
2018-11-27T12:57:52.877Z,93571.84
2018-11-27T13:00:24.125Z,93579.91
2018-11-27T13:02:52.815Z,93578.34
2018-11-27T13:05:25.727Z,93580.42
2018-11-27T13:07:56.101Z,93588.42
2018-11-27T13:10:24.721Z,93584.94
2018-11-27T13:12:53.374Z,93581.73
2018-11-27T13:15:22.213Z,93577.62
2018-11-27T13:17:52.006Z,93582.82
2018-11-27T13:20:21.015Z,93569.47
2018-11-27T13:22:50.412Z,93577.72
2018-11-27T13:25:21.047Z,93580.84
2018-11-27T13:27:50.443Z,93578.41
2018-11-27T13:30:27.178Z,93577.11
2018-11-27T13:33:07.368Z,93595.80
2018-11-27T13:35:36.266Z,93591.79
2018-11-27T13:38:04.993Z,93596.67
2018-11-27T13:40:33.709Z,93588.11
2018-11-27T13:43:02.426Z,93599.69
2018-11-27T13:45:31.105Z,93599.27
2018-11-27T13:47:59.792Z,93597.81
2018-11-27T13:50:28.471Z,93599.70
2018-11-27T13:52:57.179Z,93603.69
2018-11-27T13:55:25.812Z,93604.43
2018-11-27T13:57:54.567Z,93607.80
2018-11-27T14:00:23.292Z,93607.71
2018-11-27T14:02:55.508Z,93609.28
2018-11-27T14:05:25.197Z,93608.31
2018-11-27T14:07:53.886Z,93601.72
2018-11-27T14:10:22.630Z,93600.22
2018-11-27T14:12:51.334Z,93604.73
2018-11-27T14:15:22.258Z,93603.81
2018-11-27T14:17:51.626Z,93601.77
2018-11-27T14:20:20.372Z,93600.41
2018-11-27T14:22:49.913Z,93597.81
2018-11-27T14:25:18.617Z,93594.12
2018-11-27T14:27:48.838Z,93592.95
2018-11-27T14:30:19.063Z,93598.13
2018-11-27T14:32:48.026Z,93599.89
2018-11-27T14:35:17.671Z,93599.18
2018-11-27T14:37:47.208Z,93607.39
2018-11-27T14:40:17.043Z,93604.52
2018-11-27T14:42:46.019Z,93609.09
2018-11-27T14:45:19.975Z,93604.38
2018-11-27T14:47:49.812Z,93606.91
2018-11-27T14:50:18.594Z,93604.99
2018-11-27T14:52:47.257Z,93599.27
2018-11-27T14:55:18.875Z,93605.97
2018-11-27T14:57:47.604Z,93605.55
2018-11-27T15:00:18.510Z,93604.05
2018-11-27T15:02:47.260Z,93605.63
2018-11-27T15:05:24.632Z,93609.92
2018-11-27T15:07:53.342Z,93613.42
2018-11-27T15:10:22.021Z,93617.41
2018-11-27T15:12:50.717Z,93622.74
2018-11-27T15:15:19.451Z,93622.48
2018-11-27T15:17:48.182Z,93619.52
2018-11-27T15:20:23.920Z,93609.22
2018-11-27T15:22:52.650Z,93611.70
2018-11-27T15:25:21.356Z,93607.28
2018-11-27T15:27:50.226Z,93613.18
2018-11-27T15:30:26.887Z,93606.93
2018-11-27T15:32:57.725Z,93604.12
2018-11-27T15:35:26.553Z,93605.28
2018-11-27T15:37:55.237Z,93607.94
2018-11-27T15:40:25.197Z,93612.45
2018-11-27T15:42:54.039Z,93613.63
2018-11-27T15:45:24.861Z,93619.08
2018-11-27T15:47:53.532Z,93628.22
2018-11-27T15:50:22.207Z,93619.95
2018-11-27T15:52:50.872Z,93621.36
2018-11-27T15:55:21.082Z,93623.28
2018-11-27T15:57:51.040Z,93624.27
2018-11-27T16:00:21.653Z,93621.93
2018-11-27T16:02:50.377Z,93616.56
2018-11-27T16:05:19.209Z,93616.98
2018-11-27T16:07:47.891Z,93611.66
2018-11-27T16:10:18.151Z,93614.95
2018-11-27T16:12:46.842Z,93613.97
2018-11-27T16:15:16.752Z,93616.11
2018-11-27T16:17:45.502Z,93620.43
2018-11-27T16:20:16.482Z,93625.80
2018-11-27T16:22:47.030Z,93621.52
2018-11-27T16:25:17.115Z,93617.86
2018-11-27T16:27:45.968Z,93611.50
2018-11-27T16:30:21.527Z,93617.94
2018-11-27T16:32:50.591Z,93618.25
2018-11-27T16:35:19.773Z,93617.94
2018-11-27T16:37:52.414Z,93616.95
2018-11-27T16:40:22.541Z,93626.14
2018-11-27T16:42:51.219Z,93632.01
2018-11-27T16:45:20.964Z,93633.58
2018-11-27T16:47:49.868Z,93623.59
2018-11-27T16:50:19.012Z,93616.92
2018-11-27T16:52:48.089Z,93614.44
2018-11-27T16:55:18.002Z,93609.84
2018-11-27T16:57:46.686Z,93616.16
2018-11-27T17:00:30.482Z,93616.72
2018-11-27T17:03:00.308Z,93616.84
2018-11-27T17:05:33.185Z,93617.34
2018-11-27T17:08:01.934Z,93620.61
2018-11-27T17:10:30.621Z,93610.78
2018-11-27T17:12:59.393Z,93617.45
2018-11-27T17:15:28.688Z,93622.65
2018-11-27T17:17:57.628Z,93619.86
2018-11-27T17:20:30.511Z,93623.16
2018-11-27T17:23:01.094Z,93622.70
2018-11-27T17:25:29.840Z,93623.83
2018-11-27T17:28:00.220Z,93624.89
2018-11-27T17:30:33.838Z,93629.37
2018-11-27T17:33:02.501Z,93628.74
2018-11-27T17:35:31.270Z,93626.67
2018-11-27T17:37:59.891Z,93633.19
2018-11-27T17:40:28.573Z,93626.75
2018-11-27T17:42:57.363Z,93619.43
2018-11-27T17:45:26.104Z,93624.31
2018-11-27T17:47:54.936Z,93619.31
2018-11-27T17:50:23.611Z,93624.50
2018-11-27T17:52:52.224Z,93624.62
2018-11-27T17:55:20.898Z,93626.00
2018-11-27T17:57:49.744Z,93622.07
2018-11-27T18:00:29.656Z,93623.83
2018-11-27T18:03:04.934Z,93620.92
2018-11-27T18:05:33.614Z,93616.53
2018-11-27T18:08:02.350Z,93618.66
2018-11-27T18:10:31.065Z,93611.11
2018-11-27T18:12:59.841Z,93613.47
2018-11-27T18:15:28.518Z,93620.89
2018-11-27T18:17:57.370Z,93621.00
2018-11-27T18:20:26.111Z,93616.88
2018-11-27T18:22:54.833Z,93618.89
2018-11-27T18:25:23.496Z,93623.84
2018-11-27T18:27:52.242Z,93622.07
2018-11-27T18:30:31.806Z,93619.95
2018-11-27T18:33:00.569Z,93622.19
2018-11-27T18:35:29.283Z,93618.30
2018-11-27T18:37:59.008Z,93618.97
2018-11-27T18:40:27.728Z,93624.04
2018-11-27T18:42:56.405Z,93622.63
2018-11-27T18:45:27.443Z,93622.20
2018-11-27T18:47:56.058Z,93619.56
2018-11-27T18:50:26.806Z,93615.79
2018-11-27T18:52:55.545Z,93623.57
2018-11-27T18:55:24.233Z,93616.97
2018-11-27T18:57:52.961Z,93624.98
2018-11-27T19:00:25.618Z,93632.84
2018-11-27T19:02:54.351Z,93636.66
2018-11-27T19:05:23.082Z,93639.20
2018-11-27T19:07:51.813Z,93635.86
2018-11-27T19:10:25.492Z,93626.80
2018-11-27T19:12:54.249Z,93629.45
2018-11-27T19:15:53.803Z,93630.63
2018-11-27T19:18:24.799Z,93632.31
2018-11-27T19:20:53.549Z,93640.64
2018-11-27T19:23:23.621Z,93636.48
2018-11-27T19:25:52.529Z,93637.41
2018-11-27T19:28:21.205Z,93635.95
2018-11-27T19:30:50.229Z,93631.76
2018-11-27T19:33:18.959Z,93642.42
2018-11-27T19:40:34.510Z,93643.30
2018-11-27T19:43:03.157Z,93647.30
2018-11-27T19:45:31.828Z,93642.98
2018-11-27T19:48:00.492Z,93638.66
2018-11-27T19:50:29.205Z,93639.97
2018-11-27T19:52:58.145Z,93645.44
2018-11-27T19:55:26.960Z,93643.64
2018-11-27T19:57:55.791Z,93648.09
2018-11-27T20:00:25.924Z,93644.34
2018-11-27T20:02:54.648Z,93650.19
2018-11-27T20:05:26.504Z,93645.25
2018-11-27T20:07:55.208Z,93640.52
2018-11-27T20:10:23.876Z,93639.15
2018-11-27T20:12:52.559Z,93636.88
2018-11-27T20:15:23.614Z,93637.80
2018-11-27T20:17:52.799Z,93638.11
2018-11-27T20:20:22.551Z,93643.77
2018-11-27T20:22:51.343Z,93653.44
2018-11-27T20:25:21.212Z,93656.34
2018-11-27T20:27:50.368Z,93657.45
2018-11-27T20:30:22.077Z,93646.68
2018-11-27T20:32:53.919Z,93647.25
2018-11-27T20:35:22.701Z,93651.37
2018-11-27T20:37:52.221Z,93647.25
2018-11-27T20:40:21.225Z,93653.09
2018-11-27T20:42:50.138Z,93655.37
2018-11-27T20:45:19.961Z,93659.06
2018-11-27T20:47:50.175Z,93659.87
2018-11-27T20:50:20.101Z,93673.69
2018-11-27T20:52:48.812Z,93679.84
2018-11-27T20:55:17.673Z,93682.84
2018-11-27T20:57:53.214Z,93679.50
2018-11-27T21:00:25.036Z,93680.77
2018-11-27T21:02:55.267Z,93675.05
2018-11-27T21:05:23.948Z,93674.13
2018-11-27T21:07:52.642Z,93671.86
2018-11-27T21:10:21.424Z,93674.29
2018-11-27T21:12:50.092Z,93679.47
2018-11-27T21:15:19.719Z,93684.52
2018-11-27T21:17:48.380Z,93685.59
2018-11-27T21:20:17.580Z,93685.53
2018-11-27T21:22:46.191Z,93687.21
2018-11-27T21:25:19.039Z,93684.58
2018-11-27T21:27:55.068Z,93685.75
2018-11-27T21:30:23.673Z,93689.38
2018-11-27T21:32:52.404Z,93697.97
2018-11-27T21:35:21.148Z,93696.14
2018-11-27T21:37:49.912Z,93688.14
2018-11-27T21:40:18.990Z,93690.84
2018-11-27T21:42:47.708Z,93687.28
2018-11-27T21:45:19.713Z,93687.38
2018-11-27T21:47:49.206Z,93687.61
2018-11-27T21:50:18.851Z,93685.85
2018-11-27T21:52:47.587Z,93685.81
2018-11-27T21:55:16.558Z,93689.59
2018-11-27T21:57:45.315Z,93698.86
2018-11-27T22:00:16.924Z,93696.14
2018-11-27T22:02:45.613Z,93694.47
2018-11-27T22:05:14.934Z,93695.84
2018-11-27T22:07:43.904Z,93690.53
2018-11-27T22:10:14.717Z,93702.23
2018-11-27T22:12:44.421Z,93712.74
2018-11-27T22:15:22.313Z,93716.68
2018-11-27T22:17:50.938Z,93723.02
2018-11-27T22:20:21.501Z,93721.58
2018-11-27T22:22:48.349Z,93720.69
2018-11-27T22:25:17.014Z,93719.34
2018-11-27T22:27:45.742Z,93716.91
2018-11-27T22:30:16.932Z,93718.08
2018-11-27T22:32:48.402Z,93715.88
2018-11-27T22:35:17.118Z,93714.69
2018-11-27T22:37:51.937Z,93712.50
2018-11-27T22:40:21.945Z,93715.71
2018-11-27T22:42:58.634Z,93711.84
2018-11-27T22:45:42.789Z,93710.41
2018-11-27T22:48:12.747Z,93715.08
2018-11-27T22:50:44.723Z,93719.29
2018-11-27T22:53:14.097Z,93724.77
2018-11-27T22:55:44.560Z,93720.92
2018-11-27T22:58:13.276Z,93718.82
2018-11-27T23:00:55.617Z,93730.76
2018-11-27T23:03:24.204Z,93728.98
2018-11-27T23:06:05.226Z,93724.94
2018-11-27T23:08:33.938Z,93717.37
2018-11-27T23:11:03.287Z,93714.95
2018-11-27T23:13:34.291Z,93715.75
2018-11-27T23:16:20.665Z,93719.47
2018-11-27T23:18:49.304Z,93717.57
2018-11-27T23:21:21.929Z,93716.74
2018-11-27T23:24:11.917Z,93713.69
2018-11-27T23:26:40.623Z,93714.34
2018-11-27T23:29:09.272Z,93708.70
2018-11-27T23:31:37.905Z,93710.30
2018-11-27T23:34:06.601Z,93711.28
2018-11-27T23:36:35.206Z,93714.81
2018-11-27T23:39:04.156Z,93718.35
2018-11-27T23:41:32.852Z,93709.17
2018-11-27T23:47:08.879Z,93707.73
2018-11-27T23:49:39.941Z,93702.89
2018-11-27T23:52:08.610Z,93704.38
2018-11-27T23:54:37.256Z,93702.09
2018-11-27T23:57:06.984Z,93703.69
2018-11-27T23:59:35.308Z,93714.18
